Weather at Aerodromo da Pedra da Broa

Public forecast

Using degrees Celsius for public forecast. Weather courtesy of forecast.io.

Closest aviation weather report (METAR) to Aerodromo da Pedra da Broa

Closest report is Ovar Air Base, 22.0 nm (40.7 km) WNW.

2024/06/19 20:00 (retrieved 1 hour ago)

LPOV 192000Z 33010KT 9999 FEW024 FEW030CB 17/15 Q1016

Closest aviation forecast (TAF) to Aerodromo da Pedra da Broa

Closest forecast is Ovar Air Base, 22.0 nm (40.7 km) WNW.

2024/06/19 18:12 (retrieved 3 hours ago)

TAF LPOV 191706Z 1918/2018 34010KT 9999 SCT030 PROB40 TEMPO 1918/1920 5000 SHRA BKN018 FEW025CB PROB30 TEMPO 2011/2017 34012G22KT 7000 -SHRA BKN020 FEW025TCU